createdAt,value
2023-04-07T00:05:20.041Z,100.00
2023-04-07T00:10:41.683Z,100.00
2023-04-07T00:16:03.988Z,100.00
2023-04-07T00:21:27.761Z,100.00
2023-04-07T00:26:50.116Z,100.00
2023-04-07T00:32:12.111Z,100.00
2023-04-07T00:37:34.923Z,100.00
2023-04-07T00:42:57.350Z,100.00
2023-04-07T00:48:19.984Z,100.00
2023-04-07T00:53:42.933Z,100.00
2023-04-07T00:59:06.386Z,100.00
2023-04-07T01:05:03.026Z,100.00
2023-04-07T01:10:34.732Z,100.00
2023-04-07T01:16:06.492Z,100.00
2023-04-07T01:21:38.050Z,100.00
2023-04-07T01:27:14.108Z,100.00
2023-04-07T01:32:38.538Z,100.00
2023-04-07T01:38:01.984Z,100.00
2023-04-07T01:43:26.887Z,100.00
2023-04-07T01:48:50.059Z,100.00
2023-04-07T01:54:12.824Z,100.00
2023-04-07T01:59:35.285Z,100.00
2023-04-07T02:05:07.292Z,100.00
2023-04-07T02:10:37.183Z,100.00
2023-04-07T02:15:59.825Z,100.00
2023-04-07T02:21:23.404Z,100.00
2023-04-07T02:26:45.549Z,100.00
2023-04-07T02:32:07.627Z,100.00
2023-04-07T02:37:30.173Z,100.00
2023-04-07T02:42:53.295Z,100.00
2023-04-07T02:48:19.819Z,100.00
2023-04-07T02:53:42.650Z,100.00
2023-04-07T02:59:08.660Z,100.00
2023-04-07T03:04:37.444Z,100.00
2023-04-07T03:10:00.757Z,100.00
2023-04-07T03:15:30.398Z,100.00
2023-04-07T03:21:09.501Z,100.00
2023-04-07T03:26:35.694Z,100.00
2023-04-07T03:32:05.793Z,100.00
2023-04-07T03:37:28.104Z,100.00
2023-04-07T03:42:51.145Z,100.00
2023-04-07T03:48:13.292Z,100.00
2023-04-07T03:53:47.782Z,100.00
2023-04-07T05:51:34.794Z,72.11
2023-04-07T05:57:03.084Z,70.89
2023-04-07T06:02:27.836Z,67.17
2023-04-07T06:07:51.834Z,68.96
2023-04-07T06:13:14.105Z,67.18
2023-04-07T06:18:37.701Z,65.51
2023-04-07T06:24:01.896Z,62.32
2023-04-07T06:29:27.120Z,63.54
2023-04-07T06:34:51.231Z,64.28
2023-04-07T06:40:13.096Z,62.16
2023-04-07T06:45:35.150Z,58.58
2023-04-07T06:50:56.977Z,56.84
2023-04-07T06:56:19.595Z,59.51
2023-04-07T07:01:42.771Z,59.71
2023-04-07T07:07:04.962Z,56.75
2023-04-07T07:12:26.983Z,57.47
2023-04-07T07:17:48.603Z,55.07
2023-04-07T07:23:10.970Z,58.06
2023-04-07T07:28:32.782Z,54.12
2023-04-07T07:33:56.749Z,56.36
2023-04-07T07:39:19.187Z,55.98
2023-04-07T07:44:41.753Z,53.48
2023-04-07T07:50:06.296Z,55.48
2023-04-07T07:55:28.492Z,55.17
2023-04-07T08:00:51.310Z,52.84
2023-04-07T08:06:13.697Z,53.25
2023-04-07T08:11:35.793Z,52.54
2023-04-07T08:16:58.460Z,51.71
2023-04-07T08:22:21.864Z,52.17
2023-04-07T08:27:46.840Z,51.36
2023-04-07T08:33:11.829Z,49.79
2023-04-07T08:38:34.121Z,49.08
2023-04-07T08:43:58.663Z,50.93
2023-04-07T08:49:22.331Z,49.15
2023-04-07T08:54:44.925Z,50.33
2023-04-07T09:00:09.825Z,48.91
2023-04-07T09:05:33.512Z,47.43
2023-04-07T09:10:57.595Z,49.97
2023-04-07T09:16:20.131Z,48.66
2023-04-07T09:21:53.036Z,50.38
2023-04-07T09:27:21.711Z,50.23
2023-04-07T09:32:44.129Z,45.52
2023-04-07T09:38:08.430Z,46.06
2023-04-07T09:43:30.508Z,46.76
2023-04-07T09:49:07.918Z,46.22
2023-04-07T09:54:36.673Z,44.95
2023-04-07T10:00:00.052Z,45.22
2023-04-07T10:05:23.253Z,45.84
2023-04-07T10:10:46.642Z,44.90
2023-04-07T10:16:08.970Z,45.18
2023-04-07T10:21:33.023Z,45.23
2023-04-07T10:26:58.531Z,45.69
2023-04-07T10:32:31.167Z,43.73
2023-04-07T10:38:12.710Z,45.46
2023-04-07T10:43:42.452Z,45.38
2023-04-07T10:49:10.893Z,44.90
2023-04-07T10:54:34.855Z,44.64
2023-04-07T11:00:12.179Z,43.17
2023-04-07T11:05:34.138Z,44.02
2023-04-07T11:10:56.498Z,43.56
2023-04-07T11:16:20.441Z,43.47
2023-04-07T11:21:45.601Z,41.75
2023-04-07T11:27:13.475Z,41.81
2023-04-07T11:32:35.761Z,41.05
2023-04-07T11:38:02.313Z,41.59
2023-04-07T11:43:27.666Z,42.98
2023-04-07T11:48:49.843Z,43.46
2023-04-07T11:54:12.382Z,42.97
2023-04-07T11:59:34.309Z,40.99
2023-04-07T12:04:57.927Z,40.42
2023-04-07T12:10:26.261Z,40.97
2023-04-07T12:15:48.766Z,37.19
2023-04-07T12:21:10.402Z,40.67
2023-04-07T12:26:32.470Z,40.87
2023-04-07T12:31:54.361Z,40.50
2023-04-07T12:37:16.811Z,38.99
2023-04-07T12:42:38.452Z,40.87
2023-04-07T12:48:01.142Z,39.39
2023-04-07T12:53:23.463Z,40.18
2023-04-07T12:58:45.237Z,40.28
2023-04-07T13:04:08.103Z,39.87
2023-04-07T13:09:29.867Z,39.28
2023-04-07T13:14:59.755Z,38.95
2023-04-07T13:20:23.249Z,40.05
2023-04-07T13:25:44.817Z,40.27
2023-04-07T13:31:07.052Z,41.03
2023-04-07T13:36:29.575Z,40.05
2023-04-07T13:41:51.376Z,41.32
2023-04-07T13:47:15.410Z,39.42
2023-04-07T13:52:38.012Z,40.96
2023-04-07T13:57:59.884Z,39.48
2023-04-07T14:03:22.060Z,38.97
2023-04-07T14:08:44.384Z,39.60
2023-04-07T14:14:07.198Z,39.96
2023-04-07T14:19:29.332Z,40.14
2023-04-07T14:24:51.262Z,40.66
2023-04-07T14:30:13.593Z,41.10
2023-04-07T14:35:38.192Z,41.24
2023-04-07T14:41:09.803Z,41.79
2023-04-07T14:46:35.017Z,41.69
2023-04-07T14:51:57.849Z,41.60
2023-04-07T14:57:20.363Z,41.52
2023-04-07T15:02:43.119Z,41.63
2023-04-07T15:08:06.538Z,41.69
2023-04-07T15:19:34.377Z,42.45
2023-04-07T15:24:56.574Z,42.94
2023-04-07T15:30:18.411Z,44.02
2023-04-07T15:35:44.510Z,44.17
2023-04-07T15:41:07.283Z,44.85
2023-04-07T15:46:29.419Z,44.85
2023-04-07T15:51:51.772Z,45.61
2023-04-07T15:57:13.675Z,46.43
2023-04-07T16:02:36.609Z,46.98
2023-04-07T16:07:58.655Z,47.37
2023-04-07T16:13:20.539Z,47.84
2023-04-07T16:18:42.469Z,47.96
2023-04-07T16:24:04.554Z,48.35
2023-04-07T16:29:26.605Z,48.92
2023-04-07T16:34:49.790Z,49.29
2023-04-07T16:40:12.252Z,49.80
2023-04-07T16:45:34.812Z,50.07
2023-04-07T16:50:56.621Z,50.46
2023-04-07T16:56:23.868Z,50.89
2023-04-07T17:01:46.591Z,51.19
2023-04-07T17:07:09.957Z,51.80
2023-04-07T17:12:31.821Z,51.89
2023-04-07T17:17:53.946Z,51.97
2023-04-07T17:23:15.842Z,52.78
2023-04-07T17:28:37.761Z,53.03
2023-04-07T17:33:59.995Z,53.41
2023-04-07T17:39:22.400Z,53.76
2023-04-07T17:44:46.373Z,54.23
2023-04-07T17:50:09.672Z,54.65
2023-04-07T17:55:31.488Z,55.19
2023-04-07T18:00:53.888Z,55.69
2023-04-07T18:06:19.352Z,55.92
2023-04-07T18:11:44.893Z,56.76
2023-04-07T18:17:06.968Z,57.11
2023-04-07T18:22:29.107Z,57.44
2023-04-07T18:27:51.453Z,57.78
2023-04-07T18:33:16.412Z,57.99
2023-04-07T18:38:39.211Z,58.63
2023-04-07T18:44:04.840Z,58.53
2023-04-07T18:49:28.505Z,59.02
2023-04-07T18:54:53.926Z,59.09
2023-04-07T19:00:16.934Z,59.30
2023-04-07T19:05:42.781Z,60.00
2023-04-07T19:11:09.683Z,60.43
2023-04-07T19:16:43.588Z,60.46
2023-04-07T19:22:13.366Z,60.28
2023-04-07T19:27:36.850Z,60.46
2023-04-07T19:33:05.919Z,60.43
2023-04-07T19:38:28.870Z,60.36
2023-04-07T19:43:52.244Z,61.03
2023-04-07T19:49:15.135Z,60.86
2023-04-07T19:54:38.093Z,61.21
2023-04-07T20:00:03.161Z,61.39
2023-04-07T20:05:56.805Z,61.72
2023-04-07T20:11:24.785Z,62.19
2023-04-07T20:16:50.751Z,62.20
2023-04-07T20:22:14.685Z,62.19
2023-04-07T20:27:37.542Z,62.98
2023-04-07T20:33:00.559Z,63.17
2023-04-07T20:38:22.820Z,63.91
2023-04-07T20:43:45.042Z,64.46
2023-04-07T20:49:08.592Z,65.48
2023-04-07T20:54:30.920Z,66.33
2023-04-07T20:59:53.279Z,67.26
2023-04-07T21:05:19.925Z,67.83
2023-04-07T21:10:43.464Z,67.85
2023-04-07T21:16:06.311Z,68.88
2023-04-07T21:21:29.315Z,68.60
2023-04-07T21:26:55.005Z,69.54
2023-04-07T21:32:17.816Z,69.35
2023-04-07T21:37:40.465Z,69.21
2023-04-07T21:43:02.843Z,70.13
2023-04-07T21:48:28.040Z,69.77
2023-04-07T21:53:50.631Z,71.13
2023-04-07T21:59:14.051Z,71.02
2023-04-07T22:04:36.728Z,71.32
2023-04-07T22:10:00.545Z,72.50
2023-04-07T22:15:23.076Z,73.91
2023-04-07T22:20:45.879Z,74.66
2023-04-07T22:26:09.030Z,75.73
2023-04-07T22:31:31.495Z,75.73
2023-04-07T22:36:53.989Z,75.52
2023-04-07T22:42:15.983Z,77.02
2023-04-07T22:47:39.687Z,78.07
2023-04-07T22:53:01.981Z,78.57
2023-04-07T22:58:23.879Z,79.43
2023-04-07T23:03:46.220Z,79.69
2023-04-07T23:09:08.339Z,79.91
2023-04-07T23:14:30.375Z,78.67
2023-04-07T23:19:52.357Z,78.36
2023-04-07T23:25:14.474Z,78.49
2023-04-07T23:30:38.082Z,78.70
2023-04-07T23:36:00.427Z,78.77
2023-04-07T23:41:23.684Z,80.15
2023-04-07T23:46:45.594Z,81.93
2023-04-07T23:52:08.190Z,82.02
2023-04-07T23:57:30.521Z,83.18
